首页
METAR-TAF:

METAR-TAF

机场 :

宮崎機場

宮崎, 日本

纬度: 31-52N, 经度: 131-27E, 海拔: 6米

当前天气观测

该预报发布于49分钟前的11:00 UTC
风速8节,风向西
温度 19°C
湿度 64%
气压 1018 hPa
能见度10公里或以上
少量云层高于3000英尺
多云

METAR: RJFM 191100Z 27008KT 9999 FEW030 BKN/// 19/12 Q1018

时间: 20:49 (11:49 UTC)

预报

该预报发布于42分钟前的11:07 UTC
预报有效从19日的 12点(UTC)到 20日的 18点(UTC)
风速8节,风向西
能见度10公里或以上
少量云层高于3000英尺
散云层高于5000英尺
成为
从 20日的 00点(UTC)到 20日的 03点(UTC)
风速11节,风向北转东北
成为
从 20日的 09点(UTC)到 20日的 12点(UTC)
风速6节,风向西转西北

TAF: RJFM 191107Z 1912/2018 28008KT 9999 FEW030 SCT050 BECMG 2000/2003 03011KT BECMG 2009/2012 30006KT

超过4000个机场的气象观测和天气预报(METAR&TAF报告)。

可查询的气象台以黄色和红色小点在地图上表示。

将鼠标移到小点上方,可查看气象台名称。

然后点击查看天气观测和预报。

如需切换地图:点击带黑十字的绿色按钮放大地图;点击带横线的绿色按钮缩小地图;或者点击绿色箭头查看邻近地区的地图。


METAR-TAF: